createdAt,value
2022-08-23T00:00:36.903Z,17.68
2022-08-23T00:01:36.668Z,17.63
2022-08-23T00:02:36.675Z,17.54
2022-08-23T00:03:36.698Z,17.49
2022-08-23T00:04:36.625Z,17.47
2022-08-23T00:05:36.597Z,17.47
2022-08-23T00:06:36.623Z,17.42
2022-08-23T00:07:38.723Z,17.38
2022-08-23T00:08:36.569Z,17.35
2022-08-23T00:09:36.562Z,17.31
2022-08-23T00:10:36.550Z,17.28
2022-08-23T00:11:36.542Z,17.24
2022-08-23T00:12:36.613Z,17.19
2022-08-23T00:13:48.005Z,17.14
2022-08-23T00:14:36.528Z,17.12
2022-08-23T00:15:36.489Z,17.07
2022-08-23T00:16:36.502Z,17.07
2022-08-23T00:17:36.468Z,17.05
2022-08-23T00:18:36.520Z,17.05
2022-08-23T00:19:36.496Z,17.07
2022-08-23T00:20:36.437Z,17.07
2022-08-23T00:21:36.479Z,17.01
2022-08-23T00:22:36.414Z,16.97
2022-08-23T00:23:36.412Z,16.94
2022-08-23T00:24:40.765Z,16.91
2022-08-23T00:25:36.474Z,16.91
2022-08-23T00:26:36.414Z,16.89
2022-08-23T00:27:36.365Z,16.87
2022-08-23T00:28:36.388Z,16.87
2022-08-23T00:29:37.309Z,16.89
2022-08-23T00:30:37.115Z,16.89
2022-08-23T00:31:36.385Z,16.94
2022-08-23T00:32:36.296Z,16.91
2022-08-23T00:33:36.358Z,16.89
2022-08-23T00:34:36.351Z,16.87
2022-08-23T00:35:36.306Z,16.89
2022-08-23T00:36:36.307Z,16.86
2022-08-23T00:37:36.252Z,16.83
2022-08-23T00:38:36.615Z,16.82
2022-08-23T00:39:36.228Z,16.79
2022-08-23T00:40:36.273Z,16.79
2022-08-23T00:41:36.286Z,16.76
2022-08-23T00:42:36.356Z,16.69
2022-08-23T00:43:37.249Z,16.69
2022-08-23T00:44:36.212Z,16.66
2022-08-23T00:45:36.843Z,16.66
2022-08-23T00:46:36.171Z,16.66
2022-08-23T00:47:36.253Z,16.65
2022-08-23T00:48:36.338Z,16.66
2022-08-23T00:49:36.171Z,16.65
2022-08-23T00:50:36.134Z,16.66
2022-08-23T00:51:52.469Z,16.66
2022-08-23T00:52:36.245Z,16.68
2022-08-23T00:53:36.320Z,16.72
2022-08-23T00:54:36.796Z,16.76
2022-08-23T00:55:36.802Z,16.74
2022-08-23T00:56:36.093Z,16.76
2022-08-23T00:57:36.029Z,16.76
2022-08-23T00:58:36.359Z,16.76
2022-08-23T00:59:36.083Z,16.74
2022-08-23T01:00:36.355Z,16.74
2022-08-23T01:01:36.253Z,16.77
2022-08-23T01:02:36.029Z,16.79
2022-08-23T01:03:38.520Z,16.77
2022-08-23T01:04:35.966Z,16.77
2022-08-23T01:05:36.663Z,16.74
2022-08-23T01:06:36.901Z,16.68
2022-08-23T01:07:36.012Z,16.66
2022-08-23T01:08:36.011Z,16.64
2022-08-23T01:09:36.027Z,16.61
2022-08-23T01:10:35.868Z,16.57
2022-08-23T01:11:35.896Z,16.54
2022-08-23T01:12:35.959Z,16.50
2022-08-23T01:13:35.926Z,16.49
2022-08-23T01:14:36.126Z,16.44
2022-08-23T01:15:35.825Z,16.41
2022-08-23T01:16:35.815Z,16.40
2022-08-23T01:17:35.949Z,16.37
2022-08-23T01:18:36.975Z,16.39
2022-08-23T01:19:35.896Z,16.36
2022-08-23T01:20:35.964Z,16.41
2022-08-23T01:21:36.446Z,16.44
2022-08-23T01:22:36.030Z,16.51
2022-08-23T01:23:35.813Z,16.57
2022-08-23T01:25:06.892Z,16.55
2022-08-23T01:25:35.731Z,16.59
2022-08-23T01:26:35.753Z,16.59
2022-08-23T01:27:36.025Z,16.61
2022-08-23T01:28:35.994Z,16.62
2022-08-23T01:29:36.373Z,16.64
2022-08-23T01:30:35.882Z,16.64
2022-08-23T01:31:35.766Z,16.65
2022-08-23T01:32:35.787Z,16.65
2022-08-23T01:33:37.458Z,16.68
2022-08-23T01:34:35.758Z,16.66
2022-08-23T01:35:35.640Z,16.62
2022-08-23T01:36:35.627Z,16.58
2022-08-23T01:37:35.744Z,16.51
2022-08-23T01:38:35.716Z,16.49
2022-08-23T01:39:35.575Z,16.47
2022-08-23T01:40:35.551Z,16.44
2022-08-23T01:41:35.621Z,16.46
2022-08-23T01:42:35.809Z,16.43
2022-08-23T01:43:35.700Z,16.47
2022-08-23T01:44:35.878Z,16.49
2022-08-23T01:45:35.603Z,16.49
2022-08-23T01:46:35.599Z,16.49
2022-08-23T01:47:35.538Z,16.49
2022-08-23T01:48:35.648Z,16.51
2022-08-23T01:49:35.625Z,16.58
2022-08-23T01:51:35.433Z,16.54
2022-08-23T01:52:36.269Z,16.57
2022-08-23T01:53:35.463Z,16.57
2022-08-23T01:54:35.630Z,16.55
2022-08-23T01:55:35.368Z,16.55
2022-08-23T01:56:39.286Z,16.58
2022-08-23T01:57:35.495Z,16.54
2022-08-23T01:58:35.628Z,16.47
2022-08-23T01:59:35.395Z,16.43
2022-08-23T02:00:35.506Z,16.41
2022-08-23T02:01:35.572Z,16.41
2022-08-23T02:02:35.325Z,16.39
2022-08-23T02:03:35.310Z,16.36
2022-08-23T02:04:36.259Z,16.31
2022-08-23T02:05:35.410Z,16.28
2022-08-23T02:06:35.315Z,16.21
2022-08-23T02:07:35.250Z,16.13
2022-08-23T02:08:35.279Z,16.10
2022-08-23T02:09:35.218Z,16.08
2022-08-23T02:10:40.082Z,16.02
2022-08-23T02:11:35.396Z,16.00
2022-08-23T02:12:35.440Z,15.94
2022-08-23T02:13:35.168Z,15.88
2022-08-23T02:14:35.315Z,15.87
2022-08-23T02:15:35.164Z,15.84
2022-08-23T02:16:35.215Z,15.78
2022-08-23T02:17:35.123Z,15.75
2022-08-23T02:18:35.221Z,15.72
2022-08-23T02:19:35.615Z,15.67
2022-08-23T02:20:35.104Z,15.66
2022-08-23T02:21:35.075Z,15.65
2022-08-23T02:22:35.072Z,15.60
2022-08-23T02:23:35.347Z,15.59
2022-08-23T02:24:35.135Z,15.57
2022-08-23T02:25:35.044Z,15.52
2022-08-23T02:26:35.029Z,15.54
2022-08-23T02:27:35.092Z,15.51
2022-08-23T02:28:35.779Z,15.50
2022-08-23T02:29:39.161Z,15.48
2022-08-23T02:30:35.088Z,15.47
2022-08-23T02:31:34.983Z,15.43
2022-08-23T02:32:35.015Z,15.43
2022-08-23T02:33:34.970Z,15.41
2022-08-23T02:34:35.038Z,15.39
2022-08-23T02:35:35.615Z,15.35
2022-08-23T02:36:35.097Z,15.35
2022-08-23T02:37:34.906Z,15.33
2022-08-23T02:38:35.002Z,15.32
2022-08-23T02:39:34.943Z,15.26
2022-08-23T02:40:35.145Z,15.26
2022-08-23T02:41:35.750Z,15.27
2022-08-23T02:42:35.693Z,15.27
2022-08-23T02:43:39.383Z,15.25
2022-08-23T02:44:34.879Z,15.27
2022-08-23T02:45:35.626Z,15.30
2022-08-23T02:46:35.873Z,15.29
2022-08-23T02:47:34.854Z,15.23
2022-08-23T02:48:34.834Z,15.19
2022-08-23T02:49:34.771Z,15.22
2022-08-23T02:50:34.770Z,15.27
2022-08-23T02:51:34.794Z,15.33
2022-08-23T02:52:34.760Z,15.33
2022-08-23T02:53:35.614Z,15.30
2022-08-23T02:54:34.789Z,15.35
2022-08-23T02:55:34.742Z,15.36
2022-08-23T02:56:34.708Z,15.35
2022-08-23T02:57:34.766Z,15.39
2022-08-23T02:58:34.711Z,15.39
2022-08-23T02:59:34.654Z,15.41
2022-08-23T03:00:34.698Z,15.43
2022-08-23T03:01:34.643Z,15.43
2022-08-23T03:02:36.273Z,15.43
2022-08-23T03:03:34.674Z,15.50
2022-08-23T03:04:34.751Z,15.57
2022-08-23T03:05:34.587Z,15.63
2022-08-23T03:06:34.624Z,15.66
2022-08-23T03:07:34.858Z,15.75
2022-08-23T03:08:34.965Z,15.75
2022-08-23T03:09:34.563Z,15.76
2022-08-23T03:10:34.703Z,15.76
2022-08-23T03:11:34.529Z,15.78
2022-08-23T03:12:34.566Z,15.78
2022-08-23T03:13:35.252Z,15.80
2022-08-23T03:14:34.773Z,15.78
2022-08-23T03:15:34.769Z,15.78
2022-08-23T03:16:34.670Z,15.76
2022-08-23T03:17:34.463Z,15.73
2022-08-23T03:18:34.493Z,15.69
2022-08-23T03:19:34.448Z,15.65
2022-08-23T03:20:34.449Z,15.66
2022-08-23T03:21:34.415Z,15.65
2022-08-23T03:22:34.413Z,15.60
2022-08-23T03:23:34.393Z,15.60
2022-08-23T03:24:34.471Z,15.63
2022-08-23T03:25:34.380Z,15.63
2022-08-23T03:26:34.370Z,15.62
2022-08-23T03:27:38.353Z,15.59
2022-08-23T03:28:34.332Z,15.54
2022-08-23T03:29:34.327Z,15.51
2022-08-23T03:30:34.339Z,15.50
2022-08-23T03:31:34.332Z,15.48
2022-08-23T03:32:34.286Z,15.47
2022-08-23T03:33:34.286Z,15.48
2022-08-23T03:34:34.271Z,15.48
2022-08-23T03:35:34.251Z,15.47
2022-08-23T03:36:34.286Z,15.44
2022-08-23T03:37:35.791Z,15.44
2022-08-23T03:38:34.248Z,15.43
2022-08-23T03:39:34.228Z,15.44
2022-08-23T03:40:34.193Z,15.43
2022-08-23T03:41:34.188Z,15.41
2022-08-23T03:42:34.269Z,15.43
2022-08-23T03:43:34.203Z,15.44
2022-08-23T03:44:34.153Z,15.43
2022-08-23T03:45:34.165Z,15.44
2022-08-23T03:46:34.411Z,15.50
2022-08-23T03:47:34.125Z,15.50
2022-08-23T03:48:34.175Z,15.50
2022-08-23T03:49:34.108Z,15.47
2022-08-23T03:50:34.107Z,15.48
2022-08-23T03:51:34.089Z,15.48
2022-08-23T03:52:34.112Z,15.47
2022-08-23T03:53:34.099Z,15.48
2022-08-23T03:54:34.174Z,15.50
2022-08-23T03:55:34.078Z,15.50
2022-08-23T03:56:34.024Z,15.47
2022-08-23T03:57:34.015Z,15.48
2022-08-23T03:58:34.000Z,15.48
2022-08-23T03:59:33.982Z,15.47
2022-08-23T04:00:34.036Z,15.50
2022-08-23T04:01:34.072Z,15.54
2022-08-23T04:02:33.976Z,15.55
2022-08-23T04:03:33.950Z,15.57
2022-08-23T04:04:33.934Z,15.59
2022-08-23T04:05:33.928Z,15.55
2022-08-23T04:06:34.044Z,15.55
2022-08-23T04:07:33.900Z,15.59
2022-08-23T04:08:34.146Z,15.63
2022-08-23T04:09:33.880Z,15.65
2022-08-23T04:10:33.856Z,15.66
2022-08-23T04:11:33.859Z,15.65
2022-08-23T04:12:34.744Z,15.63
2022-08-23T04:13:33.863Z,15.60
2022-08-23T04:14:33.832Z,15.59
2022-08-23T04:15:34.003Z,15.55
2022-08-23T04:16:33.873Z,15.54
2022-08-23T04:17:33.903Z,15.52
2022-08-23T04:18:33.892Z,15.52
2022-08-23T04:19:33.790Z,15.54
2022-08-23T04:20:33.750Z,15.55
2022-08-23T04:21:33.838Z,15.59
2022-08-23T04:22:33.747Z,15.55
2022-08-23T04:23:33.734Z,15.52
2022-08-23T04:24:33.762Z,15.54
2022-08-23T04:25:35.713Z,15.54
2022-08-23T04:26:33.723Z,15.57
2022-08-23T04:27:33.743Z,15.59
2022-08-23T04:28:33.715Z,15.57
2022-08-23T04:29:34.706Z,15.59
2022-08-23T04:30:33.705Z,15.59
2022-08-23T04:31:34.805Z,15.59
2022-08-23T04:32:34.294Z,15.59
2022-08-23T04:33:33.656Z,15.59
2022-08-23T04:34:33.599Z,15.62
2022-08-23T04:35:33.597Z,15.63
2022-08-23T04:36:34.576Z,15.65
2022-08-23T04:37:33.563Z,15.66
2022-08-23T04:38:33.576Z,15.67
2022-08-23T04:39:33.587Z,15.67
2022-08-23T04:40:33.698Z,15.67
2022-08-23T04:41:33.538Z,15.70
2022-08-23T04:42:33.540Z,15.69
2022-08-23T04:43:34.280Z,15.70
2022-08-23T04:44:33.688Z,15.70
2022-08-23T04:45:33.468Z,15.69
2022-08-23T04:46:33.478Z,15.67
2022-08-23T04:47:33.460Z,15.67
2022-08-23T04:48:34.147Z,15.69
2022-08-23T04:49:33.471Z,15.73
2022-08-23T04:50:33.461Z,15.76
2022-08-23T04:51:33.430Z,15.81
2022-08-23T04:52:33.439Z,15.81
2022-08-23T04:53:33.417Z,15.85
2022-08-23T04:54:33.408Z,15.87
2022-08-23T04:55:33.618Z,15.87
2022-08-23T04:56:33.445Z,15.90
2022-08-23T04:57:33.336Z,15.90
2022-08-23T04:58:33.411Z,15.91
2022-08-23T04:59:33.335Z,15.96
2022-08-23T05:00:33.357Z,15.99
2022-08-23T05:01:33.383Z,16.03
2022-08-23T05:02:33.455Z,16.09
2022-08-23T05:03:33.326Z,16.10
2022-08-23T05:04:33.276Z,16.16
2022-08-23T05:05:33.245Z,16.22
2022-08-23T05:06:33.304Z,16.25
2022-08-23T05:07:42.783Z,16.25
2022-08-23T05:08:33.232Z,16.28
2022-08-23T05:09:33.212Z,16.32
2022-08-23T05:10:33.263Z,16.37
2022-08-23T05:11:33.179Z,16.41
2022-08-23T05:12:33.217Z,16.46
2022-08-23T05:13:34.855Z,16.47
2022-08-23T05:14:33.187Z,16.49
2022-08-23T05:15:33.220Z,16.51
2022-08-23T05:16:33.169Z,16.55
2022-08-23T05:17:33.116Z,16.58
2022-08-23T05:18:33.285Z,16.61
2022-08-23T05:19:33.218Z,16.64
2022-08-23T05:20:34.903Z,16.66
2022-08-23T05:21:33.244Z,16.69
2022-08-23T05:22:33.180Z,16.73
2022-08-23T05:23:33.060Z,16.77
2022-08-23T05:24:33.117Z,16.84
2022-08-23T05:25:33.087Z,16.89
2022-08-23T05:26:33.292Z,16.92
2022-08-23T05:27:33.455Z,16.97
2022-08-23T05:28:39.064Z,16.98
2022-08-23T05:29:39.009Z,16.99
2022-08-23T05:30:38.980Z,17.01
2022-08-23T05:31:32.955Z,17.04
2022-08-23T05:32:33.776Z,17.05
2022-08-23T05:33:32.974Z,17.05
2022-08-23T05:34:32.983Z,17.05
2022-08-23T05:35:33.029Z,17.07
2022-08-23T05:36:32.912Z,17.10
2022-08-23T05:37:32.919Z,17.12
2022-08-23T05:38:32.898Z,17.13
2022-08-23T05:39:36.351Z,17.14
2022-08-23T05:40:32.936Z,17.17
2022-08-23T05:41:38.404Z,17.20
2022-08-23T05:42:32.852Z,17.23
2022-08-23T05:43:32.830Z,17.27
2022-08-23T05:44:36.441Z,17.28
2022-08-23T05:45:32.850Z,17.31
2022-08-23T05:46:32.860Z,17.34
2022-08-23T05:47:33.812Z,17.37
2022-08-23T05:48:32.813Z,17.39
2022-08-23T05:49:32.803Z,17.42
2022-08-23T05:50:32.753Z,17.46
2022-08-23T05:51:32.780Z,17.50
2022-08-23T05:52:33.323Z,17.53
2022-08-23T05:53:32.792Z,17.57
2022-08-23T05:54:32.726Z,17.59
2022-08-23T05:55:35.134Z,17.60
2022-08-23T05:56:32.682Z,17.63
2022-08-23T05:57:32.677Z,17.65
2022-08-23T05:58:32.663Z,17.68
2022-08-23T05:59:32.749Z,17.71
2022-08-23T06:00:37.385Z,17.73
2022-08-23T06:01:32.667Z,17.76
2022-08-23T06:02:32.612Z,17.79
2022-08-23T06:03:32.593Z,17.82
2022-08-23T06:04:32.597Z,17.84
2022-08-23T06:05:33.306Z,17.88
2022-08-23T06:06:37.063Z,17.90
2022-08-23T06:07:32.566Z,17.93
2022-08-23T06:08:32.538Z,17.94
2022-08-23T06:09:32.531Z,17.97
2022-08-23T06:10:32.522Z,18.00
2022-08-23T06:11:32.731Z,18.03
2022-08-23T06:12:32.501Z,18.05
2022-08-23T06:13:32.487Z,18.05
2022-08-23T06:14:32.532Z,18.08
2022-08-23T06:15:32.473Z,18.08
2022-08-23T06:16:32.528Z,18.09
2022-08-23T06:17:33.387Z,18.13
2022-08-23T06:18:33.245Z,18.15
2022-08-23T06:19:32.450Z,18.19
2022-08-23T06:20:32.470Z,18.19
2022-08-23T06:21:33.841Z,18.21
2022-08-23T06:22:32.445Z,18.23
2022-08-23T06:23:32.473Z,18.26
2022-08-23T06:24:34.309Z,18.28
2022-08-23T06:25:32.392Z,18.30
2022-08-23T06:26:32.351Z,18.33
2022-08-23T06:27:32.362Z,18.34
2022-08-23T06:28:32.372Z,18.37
2022-08-23T06:29:32.386Z,18.41
2022-08-23T06:30:32.409Z,18.45
2022-08-23T06:31:32.324Z,18.51
2022-08-23T06:32:32.328Z,18.52
2022-08-23T06:33:32.390Z,18.55
2022-08-23T06:34:32.287Z,18.60
2022-08-23T06:35:39.187Z,18.64
2022-08-23T06:36:32.270Z,18.66
2022-08-23T06:37:32.255Z,18.68
2022-08-23T06:38:32.213Z,18.71
2022-08-23T06:39:36.761Z,18.73
2022-08-23T06:40:32.186Z,18.76
2022-08-23T06:41:32.241Z,18.79
2022-08-23T06:42:38.525Z,18.82
2022-08-23T06:43:32.167Z,18.85
2022-08-23T06:44:32.427Z,18.86
2022-08-23T06:45:34.869Z,18.88
2022-08-23T06:46:32.169Z,18.91
2022-08-23T06:47:32.145Z,18.96
2022-08-23T06:48:32.129Z,19.00
2022-08-23T06:49:32.222Z,19.04
2022-08-23T06:50:32.625Z,19.04
2022-08-23T06:51:32.109Z,19.04
2022-08-23T06:52:32.106Z,19.05
2022-08-23T06:53:32.144Z,19.09
2022-08-23T06:54:32.032Z,19.15
2022-08-23T06:55:32.009Z,19.17
2022-08-23T06:56:32.045Z,19.20
2022-08-23T06:57:32.034Z,19.24
2022-08-23T06:58:32.003Z,19.26
2022-08-23T06:59:32.088Z,19.29
2022-08-23T07:00:32.106Z,19.30
2022-08-23T07:01:47.636Z,19.35
2022-08-23T07:02:32.113Z,19.37
2022-08-23T07:03:36.478Z,19.37
2022-08-23T07:04:31.945Z,19.39
2022-08-23T07:05:31.969Z,19.42
2022-08-23T07:06:31.906Z,19.48
2022-08-23T07:07:41.251Z,19.49
2022-08-23T07:08:31.951Z,19.55
2022-08-23T07:09:31.937Z,19.56
2022-08-23T07:10:31.884Z,19.57
2022-08-23T07:11:32.013Z,19.57
2022-08-23T07:12:31.842Z,19.63
2022-08-23T07:13:31.912Z,19.63
2022-08-23T07:14:31.876Z,19.66
2022-08-23T07:15:31.838Z,19.67
2022-08-23T07:16:31.859Z,19.72
2022-08-23T07:17:31.873Z,19.75
2022-08-23T07:18:32.097Z,19.79
2022-08-23T07:19:31.825Z,19.81
2022-08-23T07:20:31.763Z,19.85
2022-08-23T07:21:31.768Z,19.85
2022-08-23T07:22:31.742Z,19.87
2022-08-23T07:23:31.846Z,19.90
2022-08-23T07:24:33.567Z,19.93
2022-08-23T07:25:31.842Z,19.96
2022-08-23T07:26:31.735Z,20.00
2022-08-23T07:27:31.687Z,20.03
2022-08-23T07:28:31.709Z,20.08
2022-08-23T07:29:31.739Z,20.10
2022-08-23T07:30:31.740Z,20.14
2022-08-23T07:31:31.665Z,20.15
2022-08-23T07:32:31.613Z,20.21
2022-08-23T07:33:31.667Z,20.22
2022-08-23T07:34:31.624Z,20.29
2022-08-23T07:35:34.648Z,20.34
2022-08-23T07:36:31.605Z,20.40
2022-08-23T07:37:31.607Z,20.44
2022-08-23T07:38:31.550Z,20.50
2022-08-23T07:39:31.566Z,20.55
2022-08-23T07:40:35.521Z,20.58
2022-08-23T07:41:32.797Z,20.63
2022-08-23T07:42:31.513Z,20.66
2022-08-23T07:43:31.506Z,20.68
2022-08-23T07:44:31.502Z,20.68
2022-08-23T07:45:31.496Z,20.73
2022-08-23T07:46:31.598Z,20.75
2022-08-23T07:47:31.602Z,20.82
2022-08-23T07:48:50.654Z,20.83
2022-08-23T07:49:31.446Z,20.83
2022-08-23T07:50:31.424Z,20.83
2022-08-23T07:51:32.456Z,20.86
2022-08-23T07:52:31.509Z,20.90
2022-08-23T07:53:37.381Z,20.96
2022-08-23T07:54:31.550Z,21.01
2022-08-23T07:55:31.432Z,21.01
2022-08-23T07:56:31.486Z,21.03
2022-08-23T07:57:31.473Z,21.05
2022-08-23T07:58:31.650Z,21.08
2022-08-23T07:59:34.611Z,21.13
2022-08-23T08:00:31.318Z,21.15
2022-08-23T08:01:31.414Z,21.22
2022-08-23T08:02:31.373Z,21.22
2022-08-23T08:03:31.334Z,21.25
2022-08-23T08:04:31.395Z,21.28
2022-08-23T08:05:31.408Z,21.28
2022-08-23T08:06:31.365Z,21.33
2022-08-23T08:07:31.435Z,21.35
2022-08-23T08:08:31.310Z,21.35
2022-08-23T08:09:31.406Z,21.37
2022-08-23T08:10:31.220Z,21.41
2022-08-23T08:11:34.729Z,21.44
2022-08-23T08:12:31.200Z,21.47
2022-08-23T08:13:32.092Z,21.51
2022-08-23T08:14:31.858Z,21.54
2022-08-23T08:15:31.165Z,21.56
2022-08-23T08:16:31.275Z,21.62
2022-08-23T08:17:31.389Z,21.63
2022-08-23T08:18:31.191Z,21.68
2022-08-23T08:19:31.161Z,21.66
2022-08-23T08:20:31.204Z,21.70
2022-08-23T08:21:31.138Z,21.70
2022-08-23T08:22:31.075Z,21.75
2022-08-23T08:23:31.131Z,21.77
2022-08-23T08:24:31.081Z,21.80
2022-08-23T08:25:31.886Z,21.84
2022-08-23T08:26:31.083Z,21.88
2022-08-23T08:27:31.138Z,21.89
2022-08-23T08:28:31.039Z,21.92
2022-08-23T08:29:31.041Z,21.96
2022-08-23T08:30:31.035Z,22.00
2022-08-23T08:31:31.039Z,22.03
2022-08-23T08:32:31.065Z,22.04
2022-08-23T08:33:31.137Z,22.07
2022-08-23T08:34:31.130Z,22.06
2022-08-23T08:35:31.061Z,22.07
2022-08-23T08:36:31.001Z,22.10
2022-08-23T08:37:30.937Z,22.14
2022-08-23T08:38:30.952Z,22.15
2022-08-23T08:39:30.927Z,22.19
2022-08-23T08:40:30.913Z,22.16
2022-08-23T08:41:30.936Z,22.18
2022-08-23T08:42:30.915Z,22.18
2022-08-23T08:43:30.908Z,22.18
2022-08-23T08:44:31.023Z,22.22
2022-08-23T08:45:31.370Z,22.25
2022-08-23T08:46:30.843Z,22.30
2022-08-23T08:47:30.892Z,22.31
2022-08-23T08:48:30.888Z,22.34
2022-08-23T08:49:31.963Z,22.38
2022-08-23T08:50:31.327Z,22.40
2022-08-23T08:51:30.795Z,22.38
2022-08-23T08:52:32.009Z,22.40
2022-08-23T08:53:30.850Z,22.41
2022-08-23T08:54:30.759Z,22.44
2022-08-23T08:55:30.696Z,22.46
2022-08-23T08:56:32.323Z,22.53
2022-08-23T08:57:30.755Z,22.56
2022-08-23T08:58:30.724Z,22.59
2022-08-23T08:59:30.854Z,22.59
2022-08-23T09:00:30.950Z,22.61
2022-08-23T09:01:31.119Z,22.67
2022-08-23T09:02:33.071Z,22.70
2022-08-23T09:03:30.801Z,22.74
2022-08-23T09:04:30.600Z,22.83
2022-08-23T09:05:30.644Z,22.84
2022-08-23T09:06:30.761Z,22.88
2022-08-23T09:07:31.482Z,22.91
2022-08-23T09:08:30.756Z,22.93
2022-08-23T09:09:30.799Z,22.98
2022-08-23T09:10:30.745Z,22.98
2022-08-23T09:11:30.894Z,22.98
2022-08-23T09:12:30.675Z,23.02
2022-08-23T09:13:30.567Z,23.06
2022-08-23T09:14:30.510Z,23.06
2022-08-23T09:15:30.561Z,23.06
2022-08-23T09:16:30.622Z,23.11
2022-08-23T09:17:30.514Z,23.11
2022-08-23T09:18:31.375Z,23.16
2022-08-23T09:19:30.481Z,23.14
2022-08-23T09:20:33.247Z,23.16
2022-08-23T09:21:30.579Z,23.16
2022-08-23T09:22:30.709Z,23.17
2022-08-23T09:23:30.808Z,23.20
2022-08-23T09:24:30.359Z,23.25
2022-08-23T09:25:30.550Z,23.29
2022-08-23T09:26:30.533Z,23.36
2022-08-23T09:27:32.705Z,23.42
2022-08-23T09:28:30.381Z,23.45
2022-08-23T09:29:30.629Z,23.45
2022-08-23T09:30:30.392Z,23.47
2022-08-23T09:31:34.084Z,23.48
2022-08-23T09:32:30.293Z,23.47
2022-08-23T09:33:30.385Z,23.48
2022-08-23T09:34:30.381Z,23.52
2022-08-23T09:35:30.420Z,23.54
2022-08-23T09:36:30.381Z,23.56
2022-08-23T09:37:30.441Z,23.59
2022-08-23T09:38:30.395Z,23.59
2022-08-23T09:39:31.468Z,23.66
2022-08-23T09:40:30.423Z,23.70
2022-08-23T09:41:30.413Z,23.76
2022-08-23T09:42:30.161Z,23.82
2022-08-23T09:43:30.238Z,23.91
2022-08-23T09:44:30.278Z,23.95
2022-08-23T09:45:35.201Z,23.99
2022-08-23T09:46:30.297Z,24.01
2022-08-23T09:47:30.367Z,24.07
2022-08-23T09:48:31.215Z,24.09
2022-08-23T09:49:30.136Z,24.06
2022-08-23T09:50:30.121Z,24.04
2022-08-23T09:51:30.091Z,24.06
2022-08-23T09:52:30.278Z,24.06
2022-08-23T09:53:30.511Z,24.07
2022-08-23T09:54:30.307Z,24.11
2022-08-23T09:55:30.078Z,24.14
2022-08-23T09:56:30.223Z,24.14
2022-08-23T09:57:29.983Z,24.18
2022-08-23T09:58:30.104Z,24.22
2022-08-23T09:59:30.345Z,24.25
2022-08-23T10:00:30.119Z,24.32
2022-08-23T10:01:30.045Z,24.38
2022-08-23T10:02:30.147Z,24.47
2022-08-23T10:03:30.057Z,24.47
2022-08-23T10:04:30.318Z,24.46
2022-08-23T10:05:30.421Z,24.48
2022-08-23T10:06:30.968Z,24.51
2022-08-23T10:07:30.858Z,24.55
2022-08-23T10:08:31.005Z,24.58
2022-08-23T10:09:29.879Z,24.62
2022-08-23T10:10:30.057Z,24.66
2022-08-23T10:11:31.010Z,24.68
2022-08-23T10:12:30.154Z,24.74
2022-08-23T10:13:30.079Z,24.74
2022-08-23T10:14:30.662Z,24.74
2022-08-23T10:15:34.261Z,24.69
2022-08-23T10:16:29.880Z,24.68
2022-08-23T10:17:29.906Z,24.65
2022-08-23T10:18:29.771Z,24.62
2022-08-23T10:19:29.759Z,24.62
2022-08-23T10:20:29.753Z,24.61
2022-08-23T10:21:29.730Z,24.56
2022-08-23T10:22:29.707Z,24.62
2022-08-23T10:23:29.807Z,24.66
2022-08-23T10:24:29.690Z,24.68
2022-08-23T10:25:29.692Z,24.71
2022-08-23T10:26:29.706Z,24.75
2022-08-23T10:27:29.681Z,24.78
2022-08-23T10:28:29.705Z,24.84
2022-08-23T10:29:30.367Z,24.92
2022-08-23T10:30:29.663Z,24.97
2022-08-23T10:31:29.639Z,25.00
2022-08-23T10:32:29.613Z,25.04
2022-08-23T10:33:29.618Z,25.09
2022-08-23T10:34:29.969Z,25.14
2022-08-23T10:35:29.690Z,25.16
2022-08-23T10:36:29.658Z,25.21
2022-08-23T10:37:29.668Z,25.24
2022-08-23T10:38:29.600Z,25.25
2022-08-23T10:39:29.588Z,25.25
2022-08-23T10:40:29.570Z,25.29
2022-08-23T10:41:29.567Z,25.26
2022-08-23T10:42:29.490Z,25.33
2022-08-23T10:43:29.598Z,25.37
2022-08-23T10:44:29.494Z,25.40
2022-08-23T10:45:29.485Z,25.44
2022-08-23T10:46:29.547Z,25.48
2022-08-23T10:47:29.737Z,25.51
2022-08-23T10:48:29.456Z,25.58
2022-08-23T10:49:30.453Z,25.66
2022-08-23T10:50:29.401Z,25.63
2022-08-23T10:51:31.535Z,25.61
2022-08-23T10:52:29.372Z,25.63
2022-08-23T10:53:29.453Z,25.66
2022-08-23T10:54:29.392Z,25.71
2022-08-23T10:55:29.438Z,25.76
2022-08-23T10:56:29.385Z,25.78
2022-08-23T10:57:29.364Z,25.77
2022-08-23T10:58:30.759Z,25.74
2022-08-23T10:59:29.426Z,25.78
2022-08-23T11:00:30.427Z,25.81
2022-08-23T11:01:29.406Z,25.77
2022-08-23T11:02:29.316Z,25.78
2022-08-23T11:03:29.338Z,25.85
2022-08-23T11:04:30.891Z,25.89
2022-08-23T11:05:29.367Z,25.96
2022-08-23T11:06:29.626Z,25.98
2022-08-23T11:07:29.286Z,26.03
2022-08-23T11:08:29.310Z,26.06
2022-08-23T11:09:29.311Z,26.07
2022-08-23T11:10:29.262Z,26.15
2022-08-23T11:11:29.641Z,26.15
2022-08-23T11:12:29.398Z,26.10
2022-08-23T11:13:29.159Z,26.15
2022-08-23T11:14:29.161Z,26.22
2022-08-23T11:15:29.198Z,26.27
2022-08-23T11:16:29.136Z,26.26
2022-08-23T11:17:29.510Z,26.27
2022-08-23T11:18:33.099Z,26.33
2022-08-23T11:19:29.131Z,26.30
2022-08-23T11:20:29.073Z,26.31
2022-08-23T11:21:29.085Z,26.36
2022-08-23T11:22:29.061Z,26.45
2022-08-23T11:23:29.116Z,26.55
2022-08-23T11:24:29.050Z,26.60
2022-08-23T11:25:29.035Z,26.68
2022-08-23T11:26:29.002Z,26.71
2022-08-23T11:27:29.019Z,26.76
2022-08-23T11:28:30.548Z,26.79
2022-08-23T11:29:29.076Z,26.83
2022-08-23T11:30:28.972Z,26.82
2022-08-23T11:31:28.952Z,26.85
2022-08-23T11:32:30.141Z,26.85
2022-08-23T11:33:28.940Z,26.86
2022-08-23T11:34:29.860Z,26.91
2022-08-23T11:35:28.973Z,26.91
2022-08-23T11:36:28.913Z,26.96
2022-08-23T11:37:28.892Z,26.97
2022-08-23T11:38:28.895Z,27.04
2022-08-23T11:39:28.872Z,27.05
2022-08-23T11:40:28.948Z,27.11
2022-08-23T11:41:30.170Z,27.13
2022-08-23T11:42:28.840Z,27.16
2022-08-23T11:43:28.822Z,27.18
2022-08-23T11:44:28.824Z,27.13
2022-08-23T11:45:28.805Z,27.15
2022-08-23T11:46:28.805Z,27.18
2022-08-23T11:47:28.845Z,27.18
2022-08-23T11:48:28.801Z,27.28
2022-08-23T11:49:28.763Z,27.35
2022-08-23T11:50:28.767Z,27.34
2022-08-23T11:51:28.757Z,27.33
2022-08-23T11:52:28.769Z,27.40
2022-08-23T11:53:28.801Z,27.50
2022-08-23T11:54:29.202Z,27.60
2022-08-23T11:55:29.226Z,27.66
2022-08-23T11:56:29.142Z,27.64
2022-08-23T11:57:29.102Z,27.68
2022-08-23T11:58:29.674Z,27.71
2022-08-23T11:59:29.271Z,27.72
2022-08-23T12:00:29.718Z,27.79
2022-08-23T12:01:29.561Z,27.85
2022-08-23T12:02:29.047Z,27.88
2022-08-23T12:03:28.977Z,27.98
2022-08-23T12:04:28.998Z,28.04
2022-08-23T12:05:29.222Z,28.15
2022-08-23T12:06:29.075Z,28.23
2022-08-23T12:07:29.084Z,28.28
2022-08-23T12:08:28.895Z,28.28
2022-08-23T12:09:29.045Z,28.35
2022-08-23T12:10:28.951Z,28.31
2022-08-23T12:11:29.048Z,28.34
2022-08-23T12:12:28.839Z,28.37
2022-08-23T12:13:28.773Z,28.43
2022-08-23T12:14:28.891Z,28.46
2022-08-23T12:15:29.055Z,28.53
2022-08-23T12:16:28.923Z,28.57
2022-08-23T12:17:29.734Z,28.64
2022-08-23T12:18:29.484Z,28.74
2022-08-23T12:19:28.837Z,28.82
2022-08-23T12:20:28.522Z,28.87
2022-08-23T12:21:28.751Z,28.94
2022-08-23T12:22:28.848Z,29.02
2022-08-23T12:23:28.827Z,29.06
2022-08-23T12:24:28.857Z,29.22
2022-08-23T12:25:28.848Z,29.37
2022-08-23T12:26:28.681Z,29.47
2022-08-23T12:27:28.543Z,29.52
2022-08-23T12:28:34.588Z,29.55
2022-08-23T12:29:28.501Z,29.71
2022-08-23T12:30:28.589Z,29.74
2022-08-23T12:31:28.671Z,29.80
2022-08-23T12:32:28.767Z,29.84
2022-08-23T12:33:28.563Z,29.94
2022-08-23T12:34:28.883Z,30.20
2022-08-23T12:35:28.727Z,30.52
2022-08-23T12:36:28.669Z,31.02
2022-08-23T12:37:28.670Z,31.44
2022-08-23T12:38:28.715Z,31.77
2022-08-23T12:39:28.687Z,32.29
2022-08-23T12:40:28.736Z,32.54
2022-08-23T12:41:28.464Z,32.94
2022-08-23T12:42:28.479Z,32.97
2022-08-23T12:43:28.649Z,33.40
2022-08-23T12:44:28.705Z,33.75
2022-08-23T12:45:28.373Z,34.03
2022-08-23T12:46:28.418Z,33.76
2022-08-23T12:47:28.478Z,34.13
2022-08-23T12:48:28.487Z,34.62
2022-08-23T12:49:28.440Z,35.27
2022-08-23T12:50:32.451Z,35.54
2022-08-23T12:51:28.425Z,35.81
2022-08-23T12:52:28.673Z,36.01
2022-08-23T12:53:28.423Z,35.84